createdAt,value
2022-09-24T04:35:54.083Z,27.00
2022-09-24T04:41:08.040Z,25.47
2022-09-24T04:46:11.183Z,26.23
2022-09-24T04:51:14.116Z,27.33
2022-09-24T04:56:17.146Z,24.73
2022-09-24T05:01:20.585Z,24.10
2022-09-24T05:06:23.404Z,35.67
2022-09-24T05:11:26.108Z,33.93
2022-09-24T05:16:28.998Z,39.57
2022-09-24T05:21:32.319Z,44.47
2022-09-24T05:26:53.473Z,33.33
2022-09-24T05:31:56.406Z,30.93
2022-09-24T05:37:00.204Z,25.70
2022-09-24T05:42:07.821Z,26.00
2022-09-24T05:47:10.702Z,24.77
2022-09-24T05:52:13.476Z,26.50
2022-09-24T05:57:16.572Z,23.13
2022-09-24T06:02:19.467Z,26.47
2022-09-24T06:07:22.342Z,26.37
2022-09-24T06:12:25.716Z,30.33
2022-09-24T06:17:28.801Z,28.70
2022-09-24T06:22:31.806Z,24.43
2022-09-24T06:27:34.539Z,28.80
2022-09-24T06:32:37.360Z,26.37
2022-09-24T06:37:40.148Z,25.93
2022-09-24T06:42:43.010Z,25.97
2022-09-24T06:47:51.747Z,24.27
2022-09-24T06:52:55.368Z,24.10
2022-09-24T06:58:09.684Z,25.10
2022-09-24T07:03:17.276Z,24.47
2022-09-24T07:08:20.037Z,34.10
2022-09-24T07:13:22.934Z,31.57
2022-09-24T07:18:25.857Z,29.07
2022-09-24T07:23:28.667Z,25.23
2022-09-24T07:28:31.467Z,26.27
2022-09-24T07:33:34.323Z,28.00
2022-09-24T07:38:37.337Z,26.00
2022-09-24T07:43:40.269Z,29.73
2022-09-24T07:48:43.114Z,28.57
2022-09-24T07:53:45.911Z,24.97
2022-09-24T07:58:52.595Z,27.83
2022-09-24T08:03:55.708Z,25.97
2022-09-24T08:08:58.831Z,26.23
2022-09-24T08:14:01.865Z,23.67
2022-09-24T08:19:04.779Z,27.43
2022-09-24T08:24:07.777Z,23.33
2022-09-24T08:29:10.853Z,22.17
2022-09-24T08:34:13.730Z,27.33
2022-09-24T08:39:18.842Z,25.53
2022-09-24T08:44:48.735Z,25.07
2022-09-24T08:50:11.205Z,21.40
2022-09-24T08:55:32.976Z,23.10
2022-09-24T09:00:43.999Z,21.20
2022-09-24T09:06:03.236Z,22.30
2022-09-24T09:11:09.417Z,16.17
2022-09-24T09:16:25.699Z,16.57
2022-09-24T09:21:41.851Z,13.30
2022-09-24T09:26:48.826Z,14.03
2022-09-24T09:32:05.772Z,14.63
2022-09-24T09:37:26.069Z,14.83
2022-09-24T09:42:40.432Z,14.40
2022-09-24T09:47:54.974Z,8.70
2022-09-24T09:52:57.946Z,8.47
2022-09-24T09:58:24.731Z,12.50
2022-09-24T10:03:33.810Z,8.53
2022-09-24T10:08:36.683Z,7.23
2022-09-24T10:13:39.534Z,8.97
2022-09-24T10:18:50.215Z,7.60
2022-09-24T10:23:57.589Z,9.10
2022-09-24T10:29:20.512Z,11.57
2022-09-24T10:34:28.455Z,8.13
2022-09-24T10:39:31.749Z,9.57
2022-09-24T10:44:38.567Z,10.10
2022-09-24T10:50:03.151Z,10.57
2022-09-24T10:55:19.722Z,8.37
2022-09-24T11:00:24.209Z,7.87
2022-09-24T11:06:08.925Z,8.90
2022-09-24T11:11:20.742Z,6.87
2022-09-24T11:16:59.133Z,8.47
2022-09-24T11:22:22.918Z,7.17
2022-09-24T11:27:45.535Z,4.77
2022-09-24T11:32:55.377Z,8.83
2022-09-24T11:38:10.735Z,5.53
2022-09-24T11:43:16.605Z,4.87
2022-09-24T11:48:28.442Z,4.40
2022-09-24T11:53:45.788Z,4.90
2022-09-24T11:59:32.027Z,5.90
2022-09-24T12:04:50.788Z,4.40
2022-09-24T12:10:33.935Z,5.63
2022-09-24T12:15:57.564Z,3.33
2022-09-24T12:21:07.010Z,3.27
2022-09-24T12:26:11.166Z,5.77
2022-09-24T12:31:45.996Z,3.27
2022-09-24T12:37:17.031Z,4.50
2022-09-24T12:42:21.484Z,3.37
2022-09-24T12:47:29.809Z,3.80
2022-09-24T12:52:41.286Z,4.20
2022-09-24T12:57:52.668Z,5.10
2022-09-24T13:02:56.850Z,4.33
2022-09-24T13:08:04.288Z,5.30
2022-09-24T13:13:25.964Z,5.63
2022-09-24T13:18:29.964Z,3.50
2022-09-24T13:23:38.110Z,5.93
2022-09-24T13:28:58.833Z,4.07
2022-09-24T13:34:05.770Z,3.00
2022-09-24T13:39:31.472Z,4.43
2022-09-24T13:44:43.624Z,4.70
2022-09-24T13:49:49.059Z,6.97
2022-09-24T13:54:55.590Z,5.57
2022-09-24T14:00:18.229Z,5.43
2022-09-24T14:05:22.491Z,4.33
2022-09-24T14:10:25.698Z,4.10
2022-09-24T14:15:29.260Z,4.40
2022-09-24T14:20:35.507Z,5.83
2022-09-24T14:25:39.856Z,3.07
2022-09-24T14:30:55.550Z,3.97
2022-09-24T14:35:59.989Z,4.63
2022-09-24T14:41:24.379Z,4.00
2022-09-24T14:46:36.164Z,4.70
2022-09-24T14:51:39.743Z,6.10
2022-09-24T14:56:46.277Z,7.83
2022-09-24T15:01:50.228Z,5.67
2022-09-24T15:06:54.972Z,8.00
2022-09-24T15:12:33.417Z,7.47
2022-09-24T15:17:39.554Z,6.53
2022-09-24T15:22:42.960Z,6.67
2022-09-24T15:27:46.762Z,6.73
2022-09-24T15:32:51.363Z,7.40
2022-09-24T15:37:54.754Z,6.67
2022-09-24T15:42:58.044Z,5.43
2022-09-24T15:48:01.531Z,10.50
2022-09-24T15:53:05.051Z,9.30
2022-09-24T15:58:19.230Z,7.50
2022-09-24T16:03:31.266Z,8.90
2022-09-24T16:08:35.261Z,8.67
2022-09-24T16:13:38.921Z,12.60
2022-09-24T16:18:42.426Z,13.13
2022-09-24T16:23:45.719Z,10.17
2022-09-24T16:28:51.800Z,13.17
2022-09-24T16:33:54.790Z,18.40
2022-09-24T16:38:59.061Z,19.70
2022-09-24T16:44:02.868Z,20.83
2022-09-24T16:49:06.219Z,19.17
2022-09-24T16:54:09.616Z,20.13
2022-09-24T16:59:13.073Z,15.70
2022-09-24T17:04:16.570Z,18.20
2022-09-24T17:09:38.361Z,15.43
2022-09-24T17:14:41.867Z,16.57
2022-09-24T17:19:45.435Z,17.53
2022-09-24T17:24:49.435Z,15.20
2022-09-24T17:29:52.917Z,17.40
2022-09-24T17:35:00.806Z,18.70
2022-09-24T17:40:05.852Z,17.80
2022-09-24T17:45:10.452Z,19.00
2022-09-24T17:50:13.962Z,25.23
2022-09-24T17:55:17.664Z,24.47
2022-09-24T18:00:42.505Z,21.10
2022-09-24T18:05:48.131Z,25.17
2022-09-24T18:11:19.616Z,21.30
2022-09-24T18:16:35.351Z,21.37
2022-09-24T18:21:38.749Z,23.47
2022-09-24T18:26:42.945Z,23.27
2022-09-24T18:31:46.641Z,22.63
2022-09-24T18:36:55.608Z,22.07
2022-09-24T18:41:59.422Z,20.07
2022-09-24T18:47:03.625Z,22.50
2022-09-24T18:52:09.831Z,17.17
2022-09-24T18:57:13.326Z,19.87
2022-09-24T19:02:16.981Z,19.23
2022-09-24T19:07:24.836Z,19.30
2022-09-24T19:12:40.018Z,21.57
2022-09-24T19:17:58.452Z,21.07
2022-09-24T19:23:17.562Z,28.90
2022-09-24T19:34:01.121Z,16.93
2022-09-24T19:39:25.446Z,19.20
2022-09-24T19:44:36.526Z,20.17
2022-09-24T19:50:05.739Z,23.57
2022-09-24T19:55:10.711Z,19.83
2022-09-24T20:11:09.675Z,25.50
2022-09-24T20:16:15.851Z,29.63
2022-09-24T20:21:20.743Z,26.73
2022-09-24T20:26:44.916Z,26.13
2022-09-24T20:31:53.712Z,26.37
2022-09-24T20:37:04.719Z,28.97
2022-09-24T20:42:11.484Z,25.07
2022-09-24T20:47:15.132Z,28.53
2022-09-24T20:52:20.819Z,26.13
2022-09-24T20:57:24.398Z,25.17
2022-09-24T21:02:31.003Z,24.27
2022-09-24T21:07:35.811Z,22.13
2022-09-24T21:12:39.867Z,26.40
2022-09-24T21:17:54.753Z,25.53
2022-09-24T21:23:11.193Z,25.20
2022-09-24T21:28:14.807Z,23.53
2022-09-24T21:33:18.178Z,25.20
2022-09-24T21:38:21.643Z,27.33
2022-09-24T21:43:29.734Z,26.13
2022-09-24T21:48:36.468Z,24.20
2022-09-24T21:53:39.829Z,20.87
2022-09-24T21:58:43.466Z,23.70
2022-09-24T22:03:46.979Z,24.23
2022-09-24T22:08:51.505Z,23.63
2022-09-24T22:14:01.542Z,31.60
2022-09-24T22:19:06.735Z,28.10
2022-09-24T22:24:10.391Z,33.57
2022-09-24T22:29:15.081Z,34.33
2022-09-24T22:34:36.755Z,33.03
2022-09-24T22:39:40.234Z,29.33
2022-09-24T22:44:43.664Z,24.27
2022-09-24T22:49:47.091Z,25.93
2022-09-24T22:54:50.521Z,22.80
2022-09-24T22:59:54.217Z,23.63
2022-09-24T23:04:57.781Z,25.87
2022-09-24T23:10:01.137Z,24.97
2022-09-24T23:15:04.972Z,32.10
2022-09-24T23:20:09.341Z,26.87
2022-09-24T23:25:12.649Z,23.40
2022-09-24T23:30:16.241Z,26.87
